< < Back
Terminal Aerodrome Forecast


Current Version              Previous Versions:   1  2  3  4  5  6  7  8  9  

Terminal Aerodrome Forecast

471
FTUS42 KCHS 101130
TAFCHS
TAF
KCHS 101130Z 1012/1112 27011KT P6SM FEW040
     FM101500 27016G26KT P6SM SKC
     FM102300 26009KT P6SM SKC=



Latest METAR

056
SAUS80 KWBC 102200
MTRCHS
METAR KCHS 102156Z 29017G23KT 10SM CLR 06/M13 A3004 RMK AO2 PK WND
28028/2101 SLP172 T00561128


USA.gov is the U.S. government's official web portal to all federal, state and local government web resources and services.